sensor_id;sensor_type;location;lat;lon;timestamp;P1;durP1;ratioP1;P2;durP2;ratioP2
76548;SDS011;65391;52.068;4.542;2024-03-06T00:00:01;25.6;;;16.1;;
76548;SDS011;65391;52.068;4.542;2024-03-06T00:02:25;25.6;;;16.1;;
76548;SDS011;65391;52.068;4.542;2024-03-06T00:04:53;27;;;17.8;;
76548;SDS011;65391;52.068;4.542;2024-03-06T00:07:15;27;;;17.8;;
76548;SDS011;65391;52.068;4.542;2024-03-06T00:09:40;27;;;17.8;;
76548;SDS011;65391;52.068;4.542;2024-03-06T00:12:05;27;;;17.8;;
76548;SDS011;65391;52.068;4.542;2024-03-06T00:14:30;27.4;;;18.4;;
76548;SDS011;65391;52.068;4.542;2024-03-06T00:16:55;27.4;;;18.4;;
76548;SDS011;65391;52.068;4.542;2024-03-06T00:19:21;27.4;;;18.4;;
76548;SDS011;65391;52.068;4.542;2024-03-06T00:21:45;27.4;;;18.4;;
76548;SDS011;65391;52.068;4.542;2024-03-06T00:24:11;26.6;;;17.7;;
76548;SDS011;65391;52.068;4.542;2024-03-06T00:26:35;26.6;;;17.7;;
76548;SDS011;65391;52.068;4.542;2024-03-06T00:29:00;26.6;;;17.7;;
76548;SDS011;65391;52.068;4.542;2024-03-06T00:31:25;26.6;;;17.7;;
76548;SDS011;65391;52.068;4.542;2024-03-06T00:33:50;26;;;16.8;;
76548;SDS011;65391;52.068;4.542;2024-03-06T00:36:15;26;;;16.8;;
76548;SDS011;65391;52.068;4.542;2024-03-06T00:38:40;26;;;16.8;;
76548;SDS011;65391;52.068;4.542;2024-03-06T00:41:05;26;;;16.8;;
76548;SDS011;65391;52.068;4.542;2024-03-06T00:43:30;26;;;16.8;;
76548;SDS011;65391;52.068;4.542;2024-03-06T00:45:55;25.5;;;16.7;;
76548;SDS011;65391;52.068;4.542;2024-03-06T00:48:20;25.5;;;16.7;;
76548;SDS011;65391;52.068;4.542;2024-03-06T00:50:45;25.5;;;16.7;;
76548;SDS011;65391;52.068;4.542;2024-03-06T00:53:10;25.5;;;16.7;;
76548;SDS011;65391;52.068;4.542;2024-03-06T00:55:36;26.5;;;17.2;;
76548;SDS011;65391;52.068;4.542;2024-03-06T00:58:00;26.5;;;17.2;;
76548;SDS011;65391;52.068;4.542;2024-03-06T01:00:25;26.5;;;17.2;;
76548;SDS011;65391;52.068;4.542;2024-03-06T01:02:50;26.5;;;17.2;;
76548;SDS011;65391;52.068;4.542;2024-03-06T01:05:15;26.5;;;17.4;;
76548;SDS011;65391;52.068;4.542;2024-03-06T01:07:40;26.5;;;17.4;;
76548;SDS011;65391;52.068;4.542;2024-03-06T01:10:06;26.5;;;17.4;;
76548;SDS011;65391;52.068;4.542;2024-03-06T01:12:30;26.5;;;17.4;;
76548;SDS011;65391;52.068;4.542;2024-03-06T01:14:55;25.7;;;16.3;;
76548;SDS011;65391;52.068;4.542;2024-03-06T01:17:20;25.7;;;16.3;;
76548;SDS011;65391;52.068;4.542;2024-03-06T01:19:45;25.7;;;16.3;;
76548;SDS011;65391;52.068;4.542;2024-03-06T01:22:10;25.7;;;16.3;;
76548;SDS011;65391;52.068;4.542;2024-03-06T01:24:35;25.2;;;16.1;;
76548;SDS011;65391;52.068;4.542;2024-03-06T01:27:00;25.2;;;16.1;;
76548;SDS011;65391;52.068;4.542;2024-03-06T01:29:25;25.2;;;16.1;;
76548;SDS011;65391;52.068;4.542;2024-03-06T01:31:50;25.2;;;16.1;;
76548;SDS011;65391;52.068;4.542;2024-03-06T01:34:15;24.9;;;15.5;;
76548;SDS011;65391;52.068;4.542;2024-03-06T01:36:40;24.9;;;15.5;;
76548;SDS011;65391;52.068;4.542;2024-03-06T01:39:08;24.9;;;15.5;;
76548;SDS011;65391;52.068;4.542;2024-03-06T01:41:30;24.9;;;15.5;;
76548;SDS011;65391;52.068;4.542;2024-03-06T01:43:55;26.2;;;16.9;;
76548;SDS011;65391;52.068;4.542;2024-03-06T01:46:20;26.2;;;16.9;;
76548;SDS011;65391;52.068;4.542;2024-03-06T01:48:45;26.2;;;16.9;;
76548;SDS011;65391;52.068;4.542;2024-03-06T01:51:10;26.2;;;16.9;;
76548;SDS011;65391;52.068;4.542;2024-03-06T01:53:35;26.2;;;16.9;;
76548;SDS011;65391;52.068;4.542;2024-03-06T01:56:02;26.2;;;17;;
76548;SDS011;65391;52.068;4.542;2024-03-06T01:58:25;26.2;;;17;;
76548;SDS011;65391;52.068;4.542;2024-03-06T02:00:50;26.2;;;17;;
76548;SDS011;65391;52.068;4.542;2024-03-06T02:03:15;26.2;;;17;;
76548;SDS011;65391;52.068;4.542;2024-03-06T02:05:40;26.4;;;17.2;;
76548;SDS011;65391;52.068;4.542;2024-03-06T02:08:06;26.4;;;17.2;;
76548;SDS011;65391;52.068;4.542;2024-03-06T02:10:30;26.4;;;17.2;;
76548;SDS011;65391;52.068;4.542;2024-03-06T02:12:55;26.4;;;17.2;;
76548;SDS011;65391;52.068;4.542;2024-03-06T02:15:20;25.5;;;16.4;;
76548;SDS011;65391;52.068;4.542;2024-03-06T02:17:45;25.5;;;16.4;;
76548;SDS011;65391;52.068;4.542;2024-03-06T02:20:11;25.5;;;16.4;;
76548;SDS011;65391;52.068;4.542;2024-03-06T02:22:35;25.5;;;16.4;;
76548;SDS011;65391;52.068;4.542;2024-03-06T02:25:00;25.7;;;16.7;;
76548;SDS011;65391;52.068;4.542;2024-03-06T02:27:25;25.7;;;16.7;;
76548;SDS011;65391;52.068;4.542;2024-03-06T02:29:50;25.7;;;16.7;;
76548;SDS011;65391;52.068;4.542;2024-03-06T02:32:15;25.7;;;16.7;;
76548;SDS011;65391;52.068;4.542;2024-03-06T02:34:40;25.1;;;15.8;;
76548;SDS011;65391;52.068;4.542;2024-03-06T02:37:05;25.1;;;15.8;;
76548;SDS011;65391;52.068;4.542;2024-03-06T02:39:30;25.1;;;15.8;;
76548;SDS011;65391;52.068;4.542;2024-03-06T02:41:55;25.1;;;15.8;;
76548;SDS011;65391;52.068;4.542;2024-03-06T02:44:20;24.9;;;15.7;;
76548;SDS011;65391;52.068;4.542;2024-03-06T02:46:46;24.9;;;15.7;;
76548;SDS011;65391;52.068;4.542;2024-03-06T02:49:10;24.9;;;15.7;;
76548;SDS011;65391;52.068;4.542;2024-03-06T02:51:35;24.9;;;15.7;;
76548;SDS011;65391;52.068;4.542;2024-03-06T02:54:00;25.2;;;16;;
76548;SDS011;65391;52.068;4.542;2024-03-06T02:56:26;25.2;;;16;;
76548;SDS011;65391;52.068;4.542;2024-03-06T02:58:50;25.2;;;16;;
76548;SDS011;65391;52.068;4.542;2024-03-06T03:01:15;25.2;;;16;;
76548;SDS011;65391;52.068;4.542;2024-03-06T03:03:40;25.2;;;16;;
76548;SDS011;65391;52.068;4.542;2024-03-06T03:06:05;26.7;;;17.3;;
76548;SDS011;65391;52.068;4.542;2024-03-06T03:08:30;26.7;;;17.3;;
76548;SDS011;65391;52.068;4.542;2024-03-06T03:10:55;26.7;;;17.3;;
76548;SDS011;65391;52.068;4.542;2024-03-06T03:13:20;26.7;;;17.3;;
76548;SDS011;65391;52.068;4.542;2024-03-06T03:15:45;25.9;;;16.6;;
76548;SDS011;65391;52.068;4.542;2024-03-06T03:18:10;25.9;;;16.6;;
76548;SDS011;65391;52.068;4.542;2024-03-06T03:20:35;25.9;;;16.6;;
76548;SDS011;65391;52.068;4.542;2024-03-06T03:23:00;25.9;;;16.6;;
76548;SDS011;65391;52.068;4.542;2024-03-06T03:25:25;26.1;;;16.9;;
76548;SDS011;65391;52.068;4.542;2024-03-06T03:27:50;26.1;;;16.9;;
76548;SDS011;65391;52.068;4.542;2024-03-06T03:30:17;26.1;;;16.9;;
76548;SDS011;65391;52.068;4.542;2024-03-06T03:32:40;26.1;;;16.9;;
76548;SDS011;65391;52.068;4.542;2024-03-06T03:35:06;25.9;;;16.8;;
76548;SDS011;65391;52.068;4.542;2024-03-06T03:37:30;25.9;;;16.8;;
76548;SDS011;65391;52.068;4.542;2024-03-06T03:39:55;25.9;;;16.8;;
76548;SDS011;65391;52.068;4.542;2024-03-06T03:42:20;25.9;;;16.8;;
76548;SDS011;65391;52.068;4.542;2024-03-06T03:44:48;25.2;;;16.3;;
76548;SDS011;65391;52.068;4.542;2024-03-06T03:47:10;25.2;;;16.3;;
76548;SDS011;65391;52.068;4.542;2024-03-06T03:49:35;25.2;;;16.3;;
76548;SDS011;65391;52.068;4.542;2024-03-06T03:52:00;25.2;;;16.3;;
76548;SDS011;65391;52.068;4.542;2024-03-06T03:54:25;25.7;;;16.8;;
76548;SDS011;65391;52.068;4.542;2024-03-06T03:56:50;25.7;;;16.8;;
76548;SDS011;65391;52.068;4.542;2024-03-06T03:59:15;25.7;;;16.8;;
76548;SDS011;65391;52.068;4.542;2024-03-06T04:01:40;25.7;;;16.8;;
76548;SDS011;65391;52.068;4.542;2024-03-06T04:04:05;25.3;;;16.3;;
76548;SDS011;65391;52.068;4.542;2024-03-06T04:06:30;25.3;;;16.3;;
76548;SDS011;65391;52.068;4.542;2024-03-06T04:08:55;25.3;;;16.3;;
76548;SDS011;65391;52.068;4.542;2024-03-06T04:11:20;25.3;;;16.3;;
76548;SDS011;65391;52.068;4.542;2024-03-06T04:13:45;25.3;;;16.3;;
76548;SDS011;65391;52.068;4.542;2024-03-06T04:16:10;25.6;;;16.5;;
76548;SDS011;65391;52.068;4.542;2024-03-06T04:18:35;25.6;;;16.5;;
76548;SDS011;65391;52.068;4.542;2024-03-06T04:21:03;25.6;;;16.5;;
76548;SDS011;65391;52.068;4.542;2024-03-06T04:23:25;25.6;;;16.5;;
76548;SDS011;65391;52.068;4.542;2024-03-06T04:25:50;26.3;;;17.6;;
76548;SDS011;65391;52.068;4.542;2024-03-06T04:28:15;26.3;;;17.6;;
76548;SDS011;65391;52.068;4.542;2024-03-06T04:30:40;26.3;;;17.6;;
76548;SDS011;65391;52.068;4.542;2024-03-06T04:33:05;26.3;;;17.6;;
76548;SDS011;65391;52.068;4.542;2024-03-06T04:35:30;25.6;;;16.5;;
76548;SDS011;65391;52.068;4.542;2024-03-06T04:37:55;25.6;;;16.5;;
76548;SDS011;65391;52.068;4.542;2024-03-06T04:40:20;25.6;;;16.5;;
76548;SDS011;65391;52.068;4.542;2024-03-06T04:42:46;25.6;;;16.5;;
76548;SDS011;65391;52.068;4.542;2024-03-06T04:45:11;26;;;16.8;;
76548;SDS011;65391;52.068;4.542;2024-03-06T04:47:35;26;;;16.8;;
76548;SDS011;65391;52.068;4.542;2024-03-06T04:50:00;26;;;16.8;;
76548;SDS011;65391;52.068;4.542;2024-03-06T04:52:25;26;;;16.8;;
76548;SDS011;65391;52.068;4.542;2024-03-06T04:54:51;27.2;;;17.9;;
76548;SDS011;65391;52.068;4.542;2024-03-06T04:57:15;27.2;;;17.9;;
76548;SDS011;65391;52.068;4.542;2024-03-06T04:59:40;27.2;;;17.9;;
76548;SDS011;65391;52.068;4.542;2024-03-06T05:02:05;27.2;;;17.9;;
76548;SDS011;65391;52.068;4.542;2024-03-06T05:04:30;27.1;;;18.2;;
76548;SDS011;65391;52.068;4.542;2024-03-06T05:06:55;27.1;;;18.2;;
76548;SDS011;65391;52.068;4.542;2024-03-06T05:09:20;27.1;;;18.2;;
76548;SDS011;65391;52.068;4.542;2024-03-06T05:11:45;27.1;;;18.2;;
76548;SDS011;65391;52.068;4.542;2024-03-06T05:14:10;27.3;;;18.4;;
76548;SDS011;65391;52.068;4.542;2024-03-06T05:16:35;27.3;;;18.4;;
76548;SDS011;65391;52.068;4.542;2024-03-06T05:19:00;27.3;;;18.4;;
76548;SDS011;65391;52.068;4.542;2024-03-06T05:21:25;27.3;;;18.4;;
76548;SDS011;65391;52.068;4.542;2024-03-06T05:23:50;27.3;;;18.4;;
76548;SDS011;65391;52.068;4.542;2024-03-06T05:26:15;28.2;;;19;;
76548;SDS011;65391;52.068;4.542;2024-03-06T05:28:40;28.2;;;19;;
76548;SDS011;65391;52.068;4.542;2024-03-06T05:31:15;28.2;;;19;;
76548;SDS011;65391;52.068;4.542;2024-03-06T05:33:30;28.2;;;19;;
76548;SDS011;65391;52.068;4.542;2024-03-06T05:35:58;26.8;;;18;;
76548;SDS011;65391;52.068;4.542;2024-03-06T05:38:20;26.8;;;18;;
76548;SDS011;65391;52.068;4.542;2024-03-06T05:40:45;26.8;;;18;;
76548;SDS011;65391;52.068;4.542;2024-03-06T05:43:10;26.8;;;18;;
76548;SDS011;65391;52.068;4.542;2024-03-06T05:45:35;26.5;;;17.5;;
76548;SDS011;65391;52.068;4.542;2024-03-06T05:48:00;26.5;;;17.5;;
76548;SDS011;65391;52.068;4.542;2024-03-06T05:50:25;26.5;;;17.5;;
76548;SDS011;65391;52.068;4.542;2024-03-06T05:52:50;26.5;;;17.5;;
76548;SDS011;65391;52.068;4.542;2024-03-06T05:55:15;26.6;;;18.3;;
76548;SDS011;65391;52.068;4.542;2024-03-06T05:57:40;26.6;;;18.3;;
76548;SDS011;65391;52.068;4.542;2024-03-06T06:00:08;26.6;;;18.3;;
76548;SDS011;65391;52.068;4.542;2024-03-06T06:02:30;26.6;;;18.3;;
76548;SDS011;65391;52.068;4.542;2024-03-06T06:04:55;26.4;;;18.4;;
76548;SDS011;65391;52.068;4.542;2024-03-06T06:07:20;26.4;;;18.4;;
76548;SDS011;65391;52.068;4.542;2024-03-06T06:09:45;26.4;;;18.4;;
76548;SDS011;65391;52.068;4.542;2024-03-06T06:12:13;26.4;;;18.4;;
76548;SDS011;65391;52.068;4.542;2024-03-06T06:14:35;25.7;;;17.7;;
76548;SDS011;65391;52.068;4.542;2024-03-06T06:17:01;25.7;;;17.7;;
76548;SDS011;65391;52.068;4.542;2024-03-06T06:19:25;25.7;;;17.7;;
76548;SDS011;65391;52.068;4.542;2024-03-06T06:21:51;25.7;;;17.7;;
76548;SDS011;65391;52.068;4.542;2024-03-06T06:24:15;24.6;;;16.7;;
76548;SDS011;65391;52.068;4.542;2024-03-06T06:26:40;24.6;;;16.7;;
76548;SDS011;65391;52.068;4.542;2024-03-06T06:29:05;24.6;;;16.7;;
76548;SDS011;65391;52.068;4.542;2024-03-06T06:31:31;24.6;;;16.7;;
76548;SDS011;65391;52.068;4.542;2024-03-06T06:33:55;24.6;;;16.7;;
76548;SDS011;65391;52.068;4.542;2024-03-06T06:36:20;34;;;15.9;;
76548;SDS011;65391;52.068;4.542;2024-03-06T06:38:45;34;;;15.9;;
76548;SDS011;65391;52.068;4.542;2024-03-06T06:41:10;34;;;15.9;;
76548;SDS011;65391;52.068;4.542;2024-03-06T06:43:38;34;;;15.9;;
76548;SDS011;65391;52.068;4.542;2024-03-06T06:46:00;23.3;;;15.2;;
76548;SDS011;65391;52.068;4.542;2024-03-06T06:48:25;23.3;;;15.2;;
76548;SDS011;65391;52.068;4.542;2024-03-06T06:50:50;23.3;;;15.2;;
76548;SDS011;65391;52.068;4.542;2024-03-06T06:53:16;23.3;;;15.2;;
76548;SDS011;65391;52.068;4.542;2024-03-06T06:55:40;26.7;;;14.1;;
76548;SDS011;65391;52.068;4.542;2024-03-06T06:58:05;26.7;;;14.1;;
76548;SDS011;65391;52.068;4.542;2024-03-06T07:00:30;26.7;;;14.1;;
76548;SDS011;65391;52.068;4.542;2024-03-06T07:02:55;26.7;;;14.1;;
76548;SDS011;65391;52.068;4.542;2024-03-06T07:05:20;19.1;;;14.6;;
76548;SDS011;65391;52.068;4.542;2024-03-06T07:07:45;19.1;;;14.6;;
76548;SDS011;65391;52.068;4.542;2024-03-06T07:10:11;19.1;;;14.6;;
76548;SDS011;65391;52.068;4.542;2024-03-06T07:12:35;19.1;;;14.6;;
76548;SDS011;65391;52.068;4.542;2024-03-06T07:15:00;33.1;;;15.2;;
76548;SDS011;65391;52.068;4.542;2024-03-06T07:17:29;33.1;;;15.2;;
76548;SDS011;65391;52.068;4.542;2024-03-06T07:19:50;33.1;;;15.2;;
76548;SDS011;65391;52.068;4.542;2024-03-06T07:22:16;33.1;;;15.2;;
76548;SDS011;65391;52.068;4.542;2024-03-06T07:24:40;28.6;;;14.6;;
76548;SDS011;65391;52.068;4.542;2024-03-06T07:27:05;28.6;;;14.6;;
76548;SDS011;65391;52.068;4.542;2024-03-06T07:29:30;28.6;;;14.6;;
76548;SDS011;65391;52.068;4.542;2024-03-06T07:31:55;28.6;;;14.6;;
76548;SDS011;65391;52.068;4.542;2024-03-06T07:34:20;21.4;;;14.1;;
76548;SDS011;65391;52.068;4.542;2024-03-06T07:36:45;21.4;;;14.1;;
76548;SDS011;65391;52.068;4.542;2024-03-06T07:39:10;21.4;;;14.1;;
76548;SDS011;65391;52.068;4.542;2024-03-06T07:41:35;21.4;;;14.1;;
76548;SDS011;65391;52.068;4.542;2024-03-06T07:44:01;21.4;;;14.1;;
76548;SDS011;65391;52.068;4.542;2024-03-06T07:46:26;22.5;;;14.7;;
76548;SDS011;65391;52.068;4.542;2024-03-06T07:48:50;22.5;;;14.7;;
76548;SDS011;65391;52.068;4.542;2024-03-06T07:51:16;22.5;;;14.7;;
76548;SDS011;65391;52.068;4.542;2024-03-06T07:53:40;22.5;;;14.7;;
76548;SDS011;65391;52.068;4.542;2024-03-06T07:56:09;22.5;;;14.7;;
76548;SDS011;65391;52.068;4.542;2024-03-06T07:58:30;22.5;;;14.7;;
76548;SDS011;65391;52.068;4.542;2024-03-06T08:00:56;22.5;;;14.7;;
76548;SDS011;65391;52.068;4.542;2024-03-06T08:03:21;22.5;;;14.7;;
76548;SDS011;65391;52.068;4.542;2024-03-06T08:05:45;21.7;;;13.9;;
76548;SDS011;65391;52.068;4.542;2024-03-06T08:08:10;21.7;;;13.9;;
76548;SDS011;65391;52.068;4.542;2024-03-06T08:10:35;21.7;;;13.9;;
76548;SDS011;65391;52.068;4.542;2024-03-06T08:13:00;21.7;;;13.9;;
76548;SDS011;65391;52.068;4.542;2024-03-06T08:15:25;22.1;;;14.3;;
76548;SDS011;65391;52.068;4.542;2024-03-06T08:17:51;22.1;;;14.3;;
76548;SDS011;65391;52.068;4.542;2024-03-06T08:20:15;22.1;;;14.3;;
76548;SDS011;65391;52.068;4.542;2024-03-06T08:22:41;22.1;;;14.3;;
76548;SDS011;65391;52.068;4.542;2024-03-06T08:25:06;21.9;;;14.2;;
76548;SDS011;65391;52.068;4.542;2024-03-06T08:27:30;21.9;;;14.2;;
76548;SDS011;65391;52.068;4.542;2024-03-06T08:29:55;21.9;;;14.2;;
76548;SDS011;65391;52.068;4.542;2024-03-06T08:32:20;21.9;;;14.2;;
76548;SDS011;65391;52.068;4.542;2024-03-06T08:34:46;22.9;;;14.8;;
76548;SDS011;65391;52.068;4.542;2024-03-06T08:37:11;22.9;;;14.8;;
76548;SDS011;65391;52.068;4.542;2024-03-06T08:39:35;22.9;;;14.8;;
76548;SDS011;65391;52.068;4.542;2024-03-06T08:42:00;22.9;;;14.8;;
76548;SDS011;65391;52.068;4.542;2024-03-06T08:44:25;25.1;;;16.1;;
76548;SDS011;65391;52.068;4.542;2024-03-06T08:46:50;25.1;;;16.1;;
76548;SDS011;65391;52.068;4.542;2024-03-06T08:49:16;25.1;;;16.1;;
76548;SDS011;65391;52.068;4.542;2024-03-06T08:51:41;25.1;;;16.1;;
76548;SDS011;65391;52.068;4.542;2024-03-06T08:54:05;25.1;;;16.1;;
76548;SDS011;65391;52.068;4.542;2024-03-06T08:56:30;24.3;;;14.9;;
76548;SDS011;65391;52.068;4.542;2024-03-06T08:58:55;24.3;;;14.9;;
76548;SDS011;65391;52.068;4.542;2024-03-06T09:01:21;24.3;;;14.9;;
76548;SDS011;65391;52.068;4.542;2024-03-06T09:03:45;24.3;;;14.9;;
76548;SDS011;65391;52.068;4.542;2024-03-06T09:06:11;24.8;;;16.2;;
76548;SDS011;65391;52.068;4.542;2024-03-06T09:08:36;24.8;;;16.2;;
76548;SDS011;65391;52.068;4.542;2024-03-06T09:11:00;24.8;;;16.2;;
76548;SDS011;65391;52.068;4.542;2024-03-06T09:13:26;24.8;;;16.2;;
76548;SDS011;65391;52.068;4.542;2024-03-06T09:15:51;25.5;;;16.5;;
76548;SDS011;65391;52.068;4.542;2024-03-06T09:18:16;25.5;;;16.5;;
76548;SDS011;65391;52.068;4.542;2024-03-06T09:20:40;25.5;;;16.5;;
76548;SDS011;65391;52.068;4.542;2024-03-06T09:23:05;25.5;;;16.5;;
76548;SDS011;65391;52.068;4.542;2024-03-06T09:25:31;25;;;16.8;;
76548;SDS011;65391;52.068;4.542;2024-03-06T09:27:55;25;;;16.8;;
76548;SDS011;65391;52.068;4.542;2024-03-06T09:30:21;25;;;16.8;;
76548;SDS011;65391;52.068;4.542;2024-03-06T09:32:46;25;;;16.8;;
76548;SDS011;65391;52.068;4.542;2024-03-06T09:35:11;24.9;;;17.3;;
76548;SDS011;65391;52.068;4.542;2024-03-06T09:37:36;24.9;;;17.3;;
76548;SDS011;65391;52.068;4.542;2024-03-06T09:40:01;24.9;;;17.3;;
76548;SDS011;65391;52.068;4.542;2024-03-06T09:42:26;24.9;;;17.3;;
76548;SDS011;65391;52.068;4.542;2024-03-06T09:44:51;21.8;;;16.6;;
76548;SDS011;65391;52.068;4.542;2024-03-06T09:47:16;21.8;;;16.6;;
76548;SDS011;65391;52.068;4.542;2024-03-06T09:49:41;21.8;;;16.6;;
76548;SDS011;65391;52.068;4.542;2024-03-06T09:52:06;21.8;;;16.6;;
76548;SDS011;65391;52.068;4.542;2024-03-06T09:54:31;22.7;;;17.1;;
76548;SDS011;65391;52.068;4.542;2024-03-06T09:56:56;22.7;;;17.1;;
76548;SDS011;65391;52.068;4.542;2024-03-06T09:59:21;22.7;;;17.1;;
76548;SDS011;65391;52.068;4.542;2024-03-06T10:01:50;22.7;;;17.1;;
76548;SDS011;65391;52.068;4.542;2024-03-06T10:04:19;22.7;;;17.1;;
76548;SDS011;65391;52.068;4.542;2024-03-06T10:06:36;20.7;;;17.1;;
76548;SDS011;65391;52.068;4.542;2024-03-06T10:09:04;20.7;;;17.1;;
76548;SDS011;65391;52.068;4.542;2024-03-06T10:11:26;20.7;;;17.1;;
76548;SDS011;65391;52.068;4.542;2024-03-06T10:13:52;20.7;;;17.1;;
76548;SDS011;65391;52.068;4.542;2024-03-06T10:16:16;23.5;;;17.3;;
76548;SDS011;65391;52.068;4.542;2024-03-06T10:18:41;23.5;;;17.3;;
76548;SDS011;65391;52.068;4.542;2024-03-06T10:21:06;23.5;;;17.3;;
76548;SDS011;65391;52.068;4.542;2024-03-06T10:23:31;23.5;;;17.3;;
76548;SDS011;65391;52.068;4.542;2024-03-06T10:25:56;22.5;;;16.2;;
76548;SDS011;65391;52.068;4.542;2024-03-06T10:28:21;22.5;;;16.2;;
76548;SDS011;65391;52.068;4.542;2024-03-06T10:30:46;22.5;;;16.2;;
76548;SDS011;65391;52.068;4.542;2024-03-06T10:33:11;22.5;;;16.2;;
76548;SDS011;65391;52.068;4.542;2024-03-06T10:35:36;21.1;;;14.3;;
76548;SDS011;65391;52.068;4.542;2024-03-06T10:38:01;21.1;;;14.3;;
76548;SDS011;65391;52.068;4.542;2024-03-06T10:40:26;21.1;;;14.3;;
76548;SDS011;65391;52.068;4.542;2024-03-06T10:42:51;21.1;;;14.3;;
76548;SDS011;65391;52.068;4.542;2024-03-06T10:45:16;16.9;;;11.1;;
76548;SDS011;65391;52.068;4.542;2024-03-06T10:47:41;16.9;;;11.1;;
76548;SDS011;65391;52.068;4.542;2024-03-06T10:50:06;16.9;;;11.1;;
76548;SDS011;65391;52.068;4.542;2024-03-06T10:52:31;16.9;;;11.1;;
76548;SDS011;65391;52.068;4.542;2024-03-06T10:54:56;13.3;;;10.1;;
76548;SDS011;65391;52.068;4.542;2024-03-06T10:57:21;13.3;;;10.1;;
76548;SDS011;65391;52.068;4.542;2024-03-06T10:59:46;13.3;;;10.1;;
76548;SDS011;65391;52.068;4.542;2024-03-06T11:02:11;13.3;;;10.1;;
76548;SDS011;65391;52.068;4.542;2024-03-06T11:04:36;13.3;;;10.1;;
76548;SDS011;65391;52.068;4.542;2024-03-06T11:07:01;13.6;;;9.8;;
76548;SDS011;65391;52.068;4.542;2024-03-06T11:09:26;13.6;;;9.8;;
76548;SDS011;65391;52.068;4.542;2024-03-06T11:11:51;13.6;;;9.8;;
76548;SDS011;65391;52.068;4.542;2024-03-06T11:14:16;13.6;;;9.8;;
76548;SDS011;65391;52.068;4.542;2024-03-06T11:16:56;12.6;;;7.5;;
76548;SDS011;65391;52.068;4.542;2024-03-06T11:19:06;12.6;;;7.5;;
76548;SDS011;65391;52.068;4.542;2024-03-06T11:21:31;12.6;;;7.5;;
76548;SDS011;65391;52.068;4.542;2024-03-06T11:24:12;12.6;;;7.5;;
76548;SDS011;65391;52.068;4.542;2024-03-06T11:26:21;12.1;;;8.6;;
76548;SDS011;65391;52.068;4.542;2024-03-06T11:28:46;12.1;;;8.6;;
76548;SDS011;65391;52.068;4.542;2024-03-06T11:31:11;12.1;;;8.6;;
76548;SDS011;65391;52.068;4.542;2024-03-06T11:33:36;12.1;;;8.6;;
76548;SDS011;65391;52.068;4.542;2024-03-06T11:36:20;18;;;10;;
76548;SDS011;65391;52.068;4.542;2024-03-06T11:38:28;18;;;10;;
76548;SDS011;65391;52.068;4.542;2024-03-06T11:40:51;18;;;10;;
76548;SDS011;65391;52.068;4.542;2024-03-06T11:43:23;18;;;10;;
76548;SDS011;65391;52.068;4.542;2024-03-06T11:45:43;15.1;;;8.7;;
76548;SDS011;65391;52.068;4.542;2024-03-06T11:48:06;15.1;;;8.7;;
76548;SDS011;65391;52.068;4.542;2024-03-06T11:50:33;15.1;;;8.7;;
76548;SDS011;65391;52.068;4.542;2024-03-06T11:52:56;15.1;;;8.7;;
76548;SDS011;65391;52.068;4.542;2024-03-06T11:55:21;12.8;;;9.1;;
76548;SDS011;65391;52.068;4.542;2024-03-06T11:57:46;12.8;;;9.1;;
76548;SDS011;65391;52.068;4.542;2024-03-06T12:00:11;12.8;;;9.1;;
76548;SDS011;65391;52.068;4.542;2024-03-06T12:02:36;12.8;;;9.1;;
76548;SDS011;65391;52.068;4.542;2024-03-06T12:05:01;10;;;8;;
76548;SDS011;65391;52.068;4.542;2024-03-06T12:07:26;10;;;8;;
76548;SDS011;65391;52.068;4.542;2024-03-06T12:09:51;10;;;8;;
76548;SDS011;65391;52.068;4.542;2024-03-06T12:12:16;10;;;8;;
76548;SDS011;65391;52.068;4.542;2024-03-06T12:14:41;10;;;8;;
76548;SDS011;65391;52.068;4.542;2024-03-06T12:17:06;9.9;;;7.3;;
76548;SDS011;65391;52.068;4.542;2024-03-06T12:19:31;9.9;;;7.3;;
76548;SDS011;65391;52.068;4.542;2024-03-06T12:21:58;9.9;;;7.3;;
76548;SDS011;65391;52.068;4.542;2024-03-06T12:24:21;9.9;;;7.3;;
76548;SDS011;65391;52.068;4.542;2024-03-06T12:26:46;9.2;;;5.9;;
76548;SDS011;65391;52.068;4.542;2024-03-06T12:29:11;9.2;;;5.9;;
76548;SDS011;65391;52.068;4.542;2024-03-06T12:31:37;9.2;;;5.9;;
76548;SDS011;65391;52.068;4.542;2024-03-06T12:34:01;9.2;;;5.9;;
76548;SDS011;65391;52.068;4.542;2024-03-06T12:36:26;10.6;;;7.1;;
76548;SDS011;65391;52.068;4.542;2024-03-06T12:38:54;10.6;;;7.1;;
76548;SDS011;65391;52.068;4.542;2024-03-06T12:41:16;10.6;;;7.1;;
76548;SDS011;65391;52.068;4.542;2024-03-06T12:43:43;10.6;;;7.1;;
76548;SDS011;65391;52.068;4.542;2024-03-06T12:46:06;8;;;6.3;;
76548;SDS011;65391;52.068;4.542;2024-03-06T12:48:31;8;;;6.3;;
76548;SDS011;65391;52.068;4.542;2024-03-06T12:50:56;8;;;6.3;;
76548;SDS011;65391;52.068;4.542;2024-03-06T12:53:21;8;;;6.3;;
76548;SDS011;65391;52.068;4.542;2024-03-06T12:55:46;9.6;;;6.6;;
76548;SDS011;65391;52.068;4.542;2024-03-06T12:58:11;9.6;;;6.6;;
76548;SDS011;65391;52.068;4.542;2024-03-06T13:00:36;9.6;;;6.6;;
76548;SDS011;65391;52.068;4.542;2024-03-06T13:03:01;9.6;;;6.6;;
76548;SDS011;65391;52.068;4.542;2024-03-06T13:05:26;8;;;6;;
76548;SDS011;65391;52.068;4.542;2024-03-06T13:07:51;8;;;6;;
76548;SDS011;65391;52.068;4.542;2024-03-06T13:10:16;8;;;6;;
76548;SDS011;65391;52.068;4.542;2024-03-06T13:12:41;8;;;6;;
76548;SDS011;65391;52.068;4.542;2024-03-06T13:15:06;6.6;;;5.5;;
76548;SDS011;65391;52.068;4.542;2024-03-06T13:17:31;6.6;;;5.5;;
76548;SDS011;65391;52.068;4.542;2024-03-06T13:19:56;6.6;;;5.5;;
76548;SDS011;65391;52.068;4.542;2024-03-06T13:22:21;6.6;;;5.5;;
76548;SDS011;65391;52.068;4.542;2024-03-06T13:24:46;6.6;;;5.5;;
76548;SDS011;65391;52.068;4.542;2024-03-06T13:27:11;6.2;;;4.5;;
76548;SDS011;65391;52.068;4.542;2024-03-06T13:29:36;6.2;;;4.5;;
76548;SDS011;65391;52.068;4.542;2024-03-06T13:32:01;6.2;;;4.5;;
76548;SDS011;65391;52.068;4.542;2024-03-06T13:34:26;6.2;;;4.5;;
76548;SDS011;65391;52.068;4.542;2024-03-06T13:36:51;6.5;;;4.5;;
76548;SDS011;65391;52.068;4.542;2024-03-06T13:39:16;6.5;;;4.5;;
76548;SDS011;65391;52.068;4.542;2024-03-06T13:41:41;6.5;;;4.5;;
76548;SDS011;65391;52.068;4.542;2024-03-06T13:44:06;6.5;;;4.5;;
76548;SDS011;65391;52.068;4.542;2024-03-06T13:46:31;5.7;;;4.6;;
76548;SDS011;65391;52.068;4.542;2024-03-06T13:48:56;5.7;;;4.6;;
76548;SDS011;65391;52.068;4.542;2024-03-06T13:51:21;5.7;;;4.6;;
76548;SDS011;65391;52.068;4.542;2024-03-06T13:53:46;5.7;;;4.6;;
76548;SDS011;65391;52.068;4.542;2024-03-06T13:56:11;7;;;3.8;;
76548;SDS011;65391;52.068;4.542;2024-03-06T13:58:36;7;;;3.8;;
76548;SDS011;65391;52.068;4.542;2024-03-06T14:01:01;7;;;3.8;;
76548;SDS011;65391;52.068;4.542;2024-03-06T14:03:26;7;;;3.8;;
76548;SDS011;65391;52.068;4.542;2024-03-06T14:05:51;5.6;;;4.1;;
76548;SDS011;65391;52.068;4.542;2024-03-06T14:08:16;5.6;;;4.1;;
76548;SDS011;65391;52.068;4.542;2024-03-06T14:10:41;5.6;;;4.1;;
76548;SDS011;65391;52.068;4.542;2024-03-06T14:13:06;5.6;;;4.1;;
76548;SDS011;65391;52.068;4.542;2024-03-06T14:15:31;5.1;;;4.1;;
76548;SDS011;65391;52.068;4.542;2024-03-06T14:17:56;5.1;;;4.1;;
76548;SDS011;65391;52.068;4.542;2024-03-06T14:20:22;5.1;;;4.1;;
76548;SDS011;65391;52.068;4.542;2024-03-06T14:22:46;5.1;;;4.1;;
76548;SDS011;65391;52.068;4.542;2024-03-06T14:25:11;6;;;4.5;;
76548;SDS011;65391;52.068;4.542;2024-03-06T14:27:36;6;;;4.5;;
76548;SDS011;65391;52.068;4.542;2024-03-06T14:30:01;6;;;4.5;;
76548;SDS011;65391;52.068;4.542;2024-03-06T14:32:26;6;;;4.5;;
76548;SDS011;65391;52.068;4.542;2024-03-06T14:34:51;6;;;4.5;;
76548;SDS011;65391;52.068;4.542;2024-03-06T14:37:16;4.2;;;3.5;;
76548;SDS011;65391;52.068;4.542;2024-03-06T14:39:41;4.2;;;3.5;;
76548;SDS011;65391;52.068;4.542;2024-03-06T14:42:06;4.2;;;3.5;;